createdAt,value
2023-03-10T00:01:36.802Z,95716.63
2023-03-10T00:04:07.321Z,95709.63
2023-03-10T00:06:39.659Z,95716.13
2023-03-10T00:09:12.679Z,95712.84
2023-03-10T00:11:43.013Z,95706.28
2023-03-10T00:14:13.338Z,95707.34
2023-03-10T00:16:44.830Z,95708.59
2023-03-10T00:19:15.096Z,95700.81
2023-03-10T00:21:45.777Z,95703.47
2023-03-10T00:24:18.824Z,95703.25
2023-03-10T00:26:49.104Z,95692.88
2023-03-10T00:29:20.512Z,95692.06
2023-03-10T00:31:50.889Z,95681.59
2023-03-10T00:34:26.181Z,95671.34
2023-03-10T00:36:56.478Z,95673.00
2023-03-10T00:39:29.526Z,95669.78
2023-03-10T00:41:59.949Z,95664.56
2023-03-10T00:44:31.066Z,95654.25
2023-03-10T00:47:01.372Z,95646.94
2023-03-10T00:49:32.254Z,95644.16
2023-03-10T00:52:02.645Z,95634.84
2023-03-10T00:54:35.861Z,95640.66
2023-03-10T00:57:10.822Z,95627.59
2023-03-10T00:59:50.290Z,95630.13
2023-03-10T01:02:24.580Z,95616.53
2023-03-10T01:04:55.003Z,95606.75
2023-03-10T01:07:25.525Z,95618.03
2023-03-10T01:09:58.569Z,95612.25
2023-03-10T01:12:29.063Z,95598.19
2023-03-10T01:14:59.477Z,95598.63
2023-03-10T01:17:29.959Z,95600.50
2023-03-10T01:20:01.482Z,95599.75
2023-03-10T01:22:32.491Z,95594.44
2023-03-10T01:25:05.823Z,95597.72
2023-03-10T01:27:36.211Z,95606.75
2023-03-10T01:30:07.404Z,95599.44
2023-03-10T01:32:37.493Z,95592.88
2023-03-10T01:35:08.927Z,95584.28
2023-03-10T01:37:39.310Z,95581.16
2023-03-10T01:40:18.821Z,95579.16
2023-03-10T01:42:49.742Z,95571.53
2023-03-10T01:46:04.935Z,95571.25
2023-03-10T01:48:39.895Z,95572.97
2023-03-10T01:51:13.512Z,95545.75
2023-03-10T01:53:43.948Z,95544.97
2023-03-10T01:56:17.489Z,95530.00
2023-03-10T01:58:49.596Z,95532.53
2023-03-10T02:01:21.863Z,95529.25
2023-03-10T02:03:57.816Z,95527.16
2023-03-10T02:06:29.878Z,95522.81
2023-03-10T02:09:03.157Z,95522.53
2023-03-10T02:11:37.109Z,95517.28
2023-03-10T02:14:08.689Z,95523.34
2023-03-10T02:16:39.648Z,95518.13
2023-03-10T02:19:21.840Z,95515.06
2023-03-10T02:21:59.851Z,95504.59
2023-03-10T02:24:41.683Z,95507.38
2023-03-10T02:27:22.943Z,95512.81
2023-03-10T02:30:02.627Z,95498.25
2023-03-10T02:32:41.507Z,95502.72
2023-03-10T02:35:12.977Z,95479.09
2023-03-10T02:37:53.378Z,95465.28
2023-03-10T02:40:34.077Z,95461.03
2023-03-10T02:43:21.004Z,95454.34
2023-03-10T02:45:57.141Z,95459.88
2023-03-10T02:48:34.488Z,95450.31
2023-03-10T02:51:12.808Z,95441.72
2023-03-10T02:53:44.476Z,95452.38
2023-03-10T02:56:15.206Z,95437.34
2023-03-10T02:58:50.091Z,95444.69
2023-03-10T03:01:20.938Z,95434.88
2023-03-10T03:03:52.392Z,95416.50
2023-03-10T03:06:23.752Z,95429.06
2023-03-10T03:08:54.381Z,95405.94
2023-03-10T03:11:27.049Z,95404.69
2023-03-10T03:14:00.309Z,95401.69
2023-03-10T03:16:31.872Z,95385.84
2023-03-10T03:19:05.986Z,95391.81
2023-03-10T03:21:36.465Z,95394.03
2023-03-10T03:24:07.679Z,95382.22
2023-03-10T03:26:38.132Z,95384.28
2023-03-10T03:29:20.224Z,95382.53
2023-03-10T03:31:53.731Z,95395.63
2023-03-10T03:34:28.390Z,95370.22
2023-03-10T03:37:02.191Z,95386.91
2023-03-10T03:39:37.342Z,95371.81
2023-03-10T03:42:11.053Z,95367.66
2023-03-10T03:44:51.844Z,95363.59
2023-03-10T03:47:22.828Z,95351.25
2023-03-10T03:49:53.243Z,95361.66
2023-03-10T03:52:23.616Z,95364.22
2023-03-10T03:54:54.347Z,95358.16
2023-03-10T03:57:25.458Z,95367.19
2023-03-10T03:59:58.617Z,95363.16
2023-03-10T04:02:30.833Z,95345.91
2023-03-10T04:05:11.450Z,95348.47
2023-03-10T04:07:43.104Z,95355.47
2023-03-10T04:10:19.732Z,95352.72
2023-03-10T04:12:50.980Z,95338.25
2023-03-10T04:15:27.083Z,95333.69
2023-03-10T04:18:00.154Z,95333.56
2023-03-10T04:20:31.475Z,95335.41
2023-03-10T04:23:02.521Z,95337.41
2023-03-10T04:25:36.952Z,95334.94
2023-03-10T04:28:08.117Z,95320.19
2023-03-10T04:30:45.352Z,95336.66
2023-03-10T04:33:16.993Z,95355.03
2023-03-10T04:35:51.662Z,95338.47
2023-03-10T04:38:25.916Z,95336.34
2023-03-10T04:40:58.721Z,95332.22
2023-03-10T04:43:33.416Z,95308.91
2023-03-10T04:46:08.965Z,95312.53
2023-03-10T04:48:39.733Z,95327.81
2023-03-10T04:51:13.143Z,95321.44
2023-03-10T04:53:50.689Z,95320.91
2023-03-10T04:56:21.109Z,95326.31
2023-03-10T04:58:55.072Z,95306.97
2023-03-10T05:01:33.039Z,95312.50
2023-03-10T05:04:10.447Z,95309.31
2023-03-10T05:06:40.993Z,95302.19
2023-03-10T05:09:25.590Z,95304.84
2023-03-10T05:11:56.217Z,95307.38
2023-03-10T05:14:27.682Z,95304.94
2023-03-10T05:17:00.794Z,95309.72
2023-03-10T05:19:34.037Z,95293.38
2023-03-10T05:22:05.677Z,95307.38
2023-03-10T05:24:37.876Z,95305.38
2023-03-10T05:27:08.464Z,95303.97
2023-03-10T05:29:41.670Z,95306.97
2023-03-10T05:32:21.422Z,95306.53
2023-03-10T05:34:52.617Z,95304.75
2023-03-10T05:37:23.158Z,95308.47
2023-03-10T05:39:53.734Z,95311.03
2023-03-10T05:42:25.494Z,95311.78
2023-03-10T05:44:56.106Z,95315.28
2023-03-10T05:47:29.268Z,95318.81
2023-03-10T05:49:59.605Z,95309.97
2023-03-10T05:52:30.290Z,95313.69
2023-03-10T05:55:00.782Z,95306.78
2023-03-10T05:57:31.168Z,95297.41
2023-03-10T06:00:01.528Z,95315.72
2023-03-10T06:02:36.182Z,95314.97
2023-03-10T06:05:06.625Z,95314.13
2023-03-10T06:07:38.071Z,95317.84
2023-03-10T06:10:10.635Z,95310.50
2023-03-10T06:12:41.417Z,95316.69
2023-03-10T06:15:13.234Z,95308.47
2023-03-10T06:17:46.403Z,95314.44
2023-03-10T06:20:17.637Z,95310.84
2023-03-10T06:22:48.212Z,95314.03
2023-03-10T06:25:18.676Z,95330.19
2023-03-10T06:27:49.635Z,95310.72
2023-03-10T06:30:20.966Z,95310.72
2023-03-10T06:32:53.965Z,95323.59
2023-03-10T06:35:24.718Z,95312.75
2023-03-10T06:37:55.110Z,95318.41
2023-03-10T06:40:26.167Z,95305.31
2023-03-10T06:42:56.262Z,95316.16
2023-03-10T06:45:26.707Z,95299.97
2023-03-10T06:47:59.775Z,95307.75
2023-03-10T06:50:36.734Z,95334.16
2023-03-10T06:53:07.176Z,95321.28
2023-03-10T06:55:41.034Z,95313.72
2023-03-10T06:58:11.489Z,95312.34
2023-03-10T07:00:42.245Z,95327.25
2023-03-10T07:03:15.547Z,95325.13
2023-03-10T07:05:45.922Z,95328.81
2023-03-10T07:08:16.721Z,95354.38
2023-03-10T07:10:47.347Z,95322.97
2023-03-10T07:13:20.089Z,95339.91
2023-03-10T07:15:51.000Z,95337.56
2023-03-10T07:18:27.835Z,95335.34
2023-03-10T07:20:59.599Z,95331.72
2023-03-10T07:23:30.094Z,95332.13
2023-03-10T07:26:01.132Z,95322.78
2023-03-10T07:28:31.257Z,95333.63
2023-03-10T07:31:06.838Z,95342.97
2023-03-10T07:33:42.786Z,95336.50
2023-03-10T07:36:18.533Z,95339.47
2023-03-10T07:38:49.429Z,95331.59
2023-03-10T07:41:21.241Z,95333.69
2023-03-10T07:43:56.280Z,95336.16
2023-03-10T07:46:26.858Z,95332.84
2023-03-10T07:49:04.479Z,95344.09
2023-03-10T07:51:36.062Z,95341.00
2023-03-10T07:54:06.819Z,95335.88
2023-03-10T07:56:37.341Z,95350.03
2023-03-10T07:59:07.760Z,95365.06
2023-03-10T08:01:38.221Z,95363.13
2023-03-10T08:04:12.749Z,95352.13
2023-03-10T08:06:43.215Z,95358.69
2023-03-10T08:09:13.610Z,95350.53
2023-03-10T08:11:43.934Z,95343.22
2023-03-10T08:14:15.586Z,95330.44
2023-03-10T08:16:45.953Z,95346.47
2023-03-10T08:19:19.047Z,95341.06
2023-03-10T08:21:49.382Z,95334.84
2023-03-10T08:24:19.755Z,95344.81
2023-03-10T08:26:50.185Z,95342.75
2023-03-10T08:29:20.667Z,95338.16
2023-03-10T08:31:51.246Z,95334.16
2023-03-10T08:34:24.217Z,95340.00
2023-03-10T08:36:55.094Z,95335.19
2023-03-10T08:39:27.581Z,95325.25
2023-03-10T08:41:58.814Z,95331.69
2023-03-10T08:44:29.162Z,95334.84
2023-03-10T08:46:59.788Z,95340.00
2023-03-10T08:49:32.743Z,95349.25
2023-03-10T08:52:03.173Z,95351.53
2023-03-10T08:54:33.828Z,95339.22
2023-03-10T08:57:04.516Z,95356.81
2023-03-10T08:59:34.936Z,95354.94
2023-03-10T09:02:05.456Z,95358.09
2023-03-10T09:04:38.441Z,95338.53
2023-03-10T09:07:08.970Z,95327.72
2023-03-10T09:09:39.362Z,95349.44
2023-03-10T09:12:10.701Z,95335.81
2023-03-10T09:14:42.092Z,95334.19
2023-03-10T09:17:12.398Z,95346.25
2023-03-10T09:19:45.395Z,95354.06
2023-03-10T09:22:15.779Z,95329.59
2023-03-10T09:24:46.177Z,95335.22
2023-03-10T09:27:16.624Z,95330.66
2023-03-10T09:32:37.625Z,95322.44
2023-03-10T09:35:10.947Z,95326.41
2023-03-10T09:37:41.351Z,95316.50
2023-03-10T09:40:18.843Z,95324.94
2023-03-10T09:42:51.349Z,95321.97
2023-03-10T09:45:29.953Z,95312.56
2023-03-10T09:48:28.722Z,95316.78
2023-03-10T09:51:05.881Z,95323.09
2023-03-10T09:53:54.596Z,95322.06
2023-03-10T09:56:31.678Z,95321.19
2023-03-10T09:59:08.311Z,95353.06
2023-03-10T10:01:39.897Z,95327.25
2023-03-10T10:04:14.499Z,95338.84
2023-03-10T10:06:51.141Z,95334.25
2023-03-10T10:09:32.839Z,95340.53
2023-03-10T10:12:15.197Z,95336.38
2023-03-10T10:14:56.539Z,95338.56
2023-03-10T10:17:53.046Z,95335.09
2023-03-10T10:20:33.582Z,95341.59
2023-03-10T10:23:09.645Z,95346.13
2023-03-10T10:25:42.429Z,95321.16
2023-03-10T10:28:27.235Z,95331.03
2023-03-10T10:31:14.458Z,95333.06
2023-03-10T10:34:00.189Z,95339.06
2023-03-10T10:36:33.567Z,95336.56
2023-03-10T10:39:28.156Z,95332.41
2023-03-10T10:42:15.604Z,95336.97
2023-03-10T10:44:48.118Z,95337.84
2023-03-10T10:47:33.743Z,95331.19
2023-03-10T10:50:22.940Z,95327.47
2023-03-10T10:52:56.610Z,95330.47
2023-03-10T10:55:36.083Z,95332.16
2023-03-10T10:58:10.693Z,95316.75
2023-03-10T11:00:42.479Z,95318.41
2023-03-10T11:03:29.670Z,95310.44
2023-03-10T11:06:03.678Z,95299.88
2023-03-10T11:08:40.723Z,95305.41
2023-03-10T11:11:32.260Z,95296.31
2023-03-10T11:14:32.437Z,95305.97
2023-03-10T11:17:09.183Z,95309.53
2023-03-10T11:19:59.680Z,95304.34
2023-03-10T11:22:40.953Z,95299.72
2023-03-10T11:25:25.712Z,95283.78
2023-03-10T11:28:13.640Z,95285.50
2023-03-10T11:30:51.818Z,95280.53
2023-03-10T11:33:31.053Z,95267.50
2023-03-10T11:36:10.910Z,95273.53
2023-03-10T11:38:46.331Z,95262.44
2023-03-10T11:41:20.216Z,95252.59
2023-03-10T11:44:02.047Z,95253.78
2023-03-10T11:46:39.592Z,95244.22
2023-03-10T11:49:12.255Z,95251.91
2023-03-10T11:51:48.683Z,95244.59
2023-03-10T11:54:26.890Z,95244.44
2023-03-10T11:56:58.726Z,95233.94
2023-03-10T11:59:34.537Z,95227.50
2023-03-10T12:02:14.594Z,95233.53
2023-03-10T12:04:51.652Z,95231.06
2023-03-10T12:07:28.550Z,95232.09
2023-03-10T12:10:02.408Z,95227.41
2023-03-10T12:12:36.322Z,95235.31
2023-03-10T12:15:19.103Z,95224.09
2023-03-10T12:17:50.750Z,95209.50
2023-03-10T12:20:31.209Z,95209.38
2023-03-10T12:23:03.831Z,95220.72
2023-03-10T12:25:50.476Z,95214.88
2023-03-10T12:28:29.413Z,95213.03
2023-03-10T12:31:07.394Z,95194.16
2023-03-10T12:33:56.071Z,95193.16
2023-03-10T12:36:39.556Z,95184.69
2023-03-10T12:39:40.434Z,95177.34
2023-03-10T12:42:39.781Z,95164.19
2023-03-10T12:45:28.563Z,95151.28
2023-03-10T12:48:07.454Z,95167.06
2023-03-10T12:50:47.590Z,95163.13
2023-03-10T12:53:33.559Z,95166.06
2023-03-10T12:56:25.583Z,95166.88
2023-03-10T12:59:11.548Z,95163.84
2023-03-10T13:01:59.684Z,95156.78
2023-03-10T13:04:33.609Z,95155.31
2023-03-10T13:07:05.117Z,95142.44
2023-03-10T13:09:42.427Z,95156.47
2023-03-10T13:12:19.541Z,95156.19
2023-03-10T13:14:57.272Z,95178.50
2023-03-10T13:17:32.019Z,95177.97
2023-03-10T13:20:10.059Z,95177.50
2023-03-10T13:22:40.625Z,95189.97
2023-03-10T13:25:17.799Z,95252.03
2023-03-10T13:27:51.022Z,95258.56
2023-03-10T13:30:24.346Z,95275.22
2023-03-10T13:33:01.540Z,95281.06
2023-03-10T13:35:38.027Z,95255.84
2023-03-10T13:38:16.479Z,95293.88
2023-03-10T13:40:49.731Z,95281.47
2023-03-10T13:43:38.932Z,95279.78
2023-03-10T13:46:17.972Z,95272.44
2023-03-10T13:48:50.263Z,95268.91
2023-03-10T13:51:31.728Z,95272.13
2023-03-10T13:54:22.399Z,95279.25
2023-03-10T13:56:55.831Z,95265.94
2023-03-10T13:59:29.602Z,95264.25
2023-03-10T14:02:02.521Z,95258.25
2023-03-10T14:04:52.621Z,95250.84
2023-03-10T14:07:28.435Z,95252.63
2023-03-10T14:10:17.195Z,95251.81
2023-03-10T14:12:49.512Z,95240.75
2023-03-10T14:15:29.109Z,95246.50
2023-03-10T14:18:21.682Z,95251.91
2023-03-10T14:20:52.058Z,95233.88
2023-03-10T14:23:38.915Z,95229.34
2023-03-10T14:26:19.534Z,95239.81
2023-03-10T14:28:49.878Z,95223.75
2023-03-10T14:31:25.163Z,95201.81
2023-03-10T14:33:55.653Z,95208.13
2023-03-10T14:36:27.414Z,95195.56
2023-03-10T14:39:00.362Z,95210.59
2023-03-10T14:41:31.058Z,95201.97
2023-03-10T14:44:01.473Z,95210.41
2023-03-10T14:46:33.041Z,95209.56
2023-03-10T14:49:03.530Z,95197.06
2023-03-10T14:51:36.268Z,95185.44
2023-03-10T14:54:19.777Z,95198.72
2023-03-10T14:56:52.594Z,95203.41
2023-03-10T14:59:23.043Z,95208.25
2023-03-10T15:01:53.564Z,95197.59
2023-03-10T15:04:24.262Z,95197.84
2023-03-10T15:06:54.647Z,95204.69
2023-03-10T15:09:27.676Z,95196.13
2023-03-10T15:11:59.803Z,95209.13
2023-03-10T15:14:30.687Z,95198.03
2023-03-10T15:17:02.731Z,95209.78
2023-03-10T15:19:34.658Z,95200.97
2023-03-10T15:22:05.074Z,95209.47
2023-03-10T15:24:38.275Z,95209.75
2023-03-10T15:27:08.627Z,95224.09
2023-03-10T15:29:39.283Z,95200.91
2023-03-10T15:32:10.657Z,95213.44
2023-03-10T15:34:41.147Z,95205.97
2023-03-10T15:37:12.685Z,95202.59
2023-03-10T15:39:45.694Z,95206.91
2023-03-10T15:42:16.215Z,95210.06
2023-03-10T15:44:46.910Z,95227.88
2023-03-10T15:47:17.332Z,95212.03
2023-03-10T15:49:47.737Z,95208.13
2023-03-10T15:52:18.298Z,95207.91
2023-03-10T15:54:51.306Z,95194.72
2023-03-10T15:57:21.781Z,95203.78
2023-03-10T15:59:52.503Z,95203.59
2023-03-10T16:02:22.963Z,95244.91
2023-03-10T16:04:53.614Z,95220.78
2023-03-10T16:07:24.206Z,95201.47
2023-03-10T16:09:57.247Z,95203.97
2023-03-10T16:12:27.669Z,95198.22
2023-03-10T16:14:58.335Z,95197.16
2023-03-10T16:17:31.330Z,95207.06
2023-03-10T16:20:12.300Z,95213.59
2023-03-10T16:22:45.969Z,95221.16
2023-03-10T16:25:22.678Z,95209.72
2023-03-10T16:27:53.068Z,95215.38
2023-03-10T16:30:24.340Z,95206.31
2023-03-10T16:32:54.901Z,95217.50
2023-03-10T16:35:25.396Z,95233.06
2023-03-10T16:37:55.825Z,95204.47
2023-03-10T16:40:28.803Z,95208.72
2023-03-10T16:42:59.173Z,95205.09
2023-03-10T16:45:29.704Z,95204.25
2023-03-10T16:48:00.198Z,95208.50
2023-03-10T16:50:30.596Z,95193.84
2023-03-10T16:53:01.135Z,95197.97
2023-03-10T16:55:34.254Z,95202.75
2023-03-10T16:58:04.679Z,95201.47
2023-03-10T17:00:35.357Z,95192.34
2023-03-10T17:03:05.910Z,95196.56
2023-03-10T17:05:36.329Z,95199.13
2023-03-10T17:08:06.699Z,95210.16
2023-03-10T17:10:39.752Z,95201.78
2023-03-10T17:13:10.185Z,95200.81
2023-03-10T17:15:40.646Z,95215.81
2023-03-10T17:18:11.002Z,95197.41
2023-03-10T17:20:41.443Z,95197.56
2023-03-10T17:23:11.855Z,95200.41
2023-03-10T17:25:45.610Z,95211.84
2023-03-10T17:28:16.113Z,95199.09
2023-03-10T17:30:46.469Z,95209.22
2023-03-10T17:33:17.169Z,95204.94
2023-03-10T17:35:47.577Z,95204.47
2023-03-10T17:38:17.985Z,95215.31
2023-03-10T17:40:50.923Z,95198.75
2023-03-10T17:43:33.422Z,95197.47
2023-03-10T17:46:07.370Z,95196.53
2023-03-10T17:48:38.690Z,95194.94
2023-03-10T17:51:09.424Z,95190.91
2023-03-10T17:53:39.799Z,95192.19
2023-03-10T17:56:13.571Z,95190.47
2023-03-10T17:58:44.064Z,95183.16
2023-03-10T18:01:17.764Z,95183.06
2023-03-10T18:03:48.658Z,95183.28
2023-03-10T18:06:22.589Z,95179.69
2023-03-10T18:08:56.260Z,95179.69
2023-03-10T18:11:31.466Z,95179.06
2023-03-10T18:14:03.757Z,95165.47
2023-03-10T18:16:37.742Z,95173.97
2023-03-10T18:19:10.550Z,95166.09
2023-03-10T18:21:41.793Z,95169.94
2023-03-10T18:24:14.884Z,95171.19
2023-03-10T18:26:47.887Z,95166.00
2023-03-10T18:29:18.406Z,95161.88
2023-03-10T18:31:48.957Z,95165.03
2023-03-10T18:34:20.294Z,95154.09
2023-03-10T18:36:51.770Z,95165.47
2023-03-10T18:39:22.153Z,95174.91
2023-03-10T18:41:56.969Z,95168.38
2023-03-10T18:44:27.332Z,95162.50
2023-03-10T18:47:00.575Z,95163.47
2023-03-10T18:49:31.160Z,95163.06
2023-03-10T18:52:02.430Z,95142.53
2023-03-10T18:54:33.164Z,95162.91
2023-03-10T18:57:06.761Z,95159.94
2023-03-10T18:59:37.406Z,95156.34
2023-03-10T19:02:08.174Z,95155.50
2023-03-10T19:04:43.026Z,95151.41
2023-03-10T19:07:14.813Z,95130.91
2023-03-10T19:09:45.239Z,95125.59
2023-03-10T19:12:18.267Z,95129.94
2023-03-10T19:14:48.542Z,95127.53
2023-03-10T19:17:18.856Z,95148.22
2023-03-10T19:19:49.324Z,95136.50
2023-03-10T19:22:19.707Z,95128.59
2023-03-10T19:24:50.032Z,95133.00
2023-03-10T19:27:23.264Z,95142.06
2023-03-10T19:29:55.286Z,95125.41
2023-03-10T19:32:25.827Z,95121.00
2023-03-10T19:34:56.520Z,95132.84
2023-03-10T19:37:26.947Z,95128.09
2023-03-10T19:39:57.333Z,95139.03
2023-03-10T19:42:30.322Z,95138.94
2023-03-10T19:45:00.687Z,95138.34
2023-03-10T19:47:33.895Z,95142.41
2023-03-10T19:50:04.916Z,95156.75
2023-03-10T19:52:36.137Z,95133.22
2023-03-10T19:55:08.662Z,95151.69
2023-03-10T19:57:42.752Z,95158.47
2023-03-10T20:00:17.402Z,95178.44
2023-03-10T20:02:48.104Z,95163.34
2023-03-10T20:05:18.874Z,95182.22
2023-03-10T20:07:49.557Z,95178.38
2023-03-10T20:10:21.395Z,95172.22
2023-03-10T20:12:54.390Z,95184.81
2023-03-10T20:15:24.987Z,95173.13
2023-03-10T20:17:56.026Z,95164.38
2023-03-10T20:20:26.616Z,95178.88
2023-03-10T20:22:57.096Z,95172.91
2023-03-10T20:25:29.176Z,95184.28
2023-03-10T20:28:04.685Z,95180.31
2023-03-10T20:30:37.423Z,95174.53
2023-03-10T20:33:08.028Z,95184.84
2023-03-10T20:35:39.235Z,95180.91
2023-03-10T20:38:09.729Z,95179.19
2023-03-10T20:40:40.198Z,95172.25
2023-03-10T20:43:13.711Z,95189.06
2023-03-10T20:45:44.321Z,95187.09
2023-03-10T20:48:14.851Z,95183.63
2023-03-10T20:50:45.523Z,95181.63
2023-03-10T20:53:15.980Z,95172.88
2023-03-10T20:55:46.342Z,95174.38
2023-03-10T20:58:19.399Z,95163.91
2023-03-10T21:00:51.099Z,95167.63
2023-03-10T21:03:22.062Z,95180.59
2023-03-10T21:05:52.538Z,95155.41
2023-03-10T21:08:23.005Z,95161.47
2023-03-10T21:10:53.410Z,95163.72
2023-03-10T21:13:26.421Z,95166.75
2023-03-10T21:15:56.696Z,95168.75
2023-03-10T21:18:27.094Z,95179.47
2023-03-10T21:20:57.381Z,95168.47
2023-03-10T21:23:27.841Z,95162.97
2023-03-10T21:25:58.440Z,95201.44
2023-03-10T21:28:31.519Z,95162.22
2023-03-10T21:31:01.977Z,95170.72
2023-03-10T21:33:32.355Z,95170.19
2023-03-10T21:36:02.872Z,95179.44
2023-03-10T21:38:33.273Z,95175.19
2023-03-10T21:41:03.634Z,95191.69
2023-03-10T21:43:36.552Z,95181.22
2023-03-10T21:46:07.399Z,95180.97
2023-03-10T21:48:37.921Z,95186.50
2023-03-10T21:51:09.949Z,95193.53
2023-03-10T21:53:40.356Z,95188.81
2023-03-10T21:56:11.230Z,95201.56
2023-03-10T21:58:44.198Z,95203.06
2023-03-10T22:01:17.218Z,95198.09
2023-03-10T22:03:47.627Z,95202.34
2023-03-10T22:06:18.726Z,95203.84
2023-03-10T22:08:49.181Z,95216.34
2023-03-10T22:11:20.082Z,95203.63
2023-03-10T22:13:53.173Z,95202.38
2023-03-10T22:16:26.588Z,95195.38
2023-03-10T22:18:56.926Z,95189.16
2023-03-10T22:21:27.840Z,95186.91
2023-03-10T22:23:59.994Z,95190.63
2023-03-10T22:26:30.568Z,95187.88
2023-03-10T22:29:03.782Z,95201.59
2023-03-10T22:31:34.182Z,95185.88
2023-03-10T22:34:04.663Z,95209.84
2023-03-10T22:36:35.259Z,95189.91
2023-03-10T22:39:06.370Z,95194.91
2023-03-10T22:41:38.711Z,95199.16
2023-03-10T22:44:11.951Z,95191.19
2023-03-10T22:46:42.511Z,95213.13
2023-03-10T22:49:12.999Z,95204.66
2023-03-10T22:51:44.349Z,95225.34
2023-03-10T22:54:14.661Z,95253.50
2023-03-10T22:56:45.049Z,95261.47
2023-03-10T22:59:18.209Z,95268.69
2023-03-10T23:01:48.486Z,95280.13
2023-03-10T23:04:19.651Z,95263.97
2023-03-10T23:06:49.757Z,95318.75
2023-03-10T23:09:20.045Z,95342.06
2023-03-10T23:11:50.434Z,95342.78
2023-03-10T23:14:23.299Z,95347.38
2023-03-10T23:16:53.636Z,95371.16
2023-03-10T23:19:23.950Z,95383.22
2023-03-10T23:21:54.315Z,95380.31
2023-03-10T23:24:24.743Z,95398.59
2023-03-10T23:26:55.188Z,95401.56
2023-03-10T23:29:28.767Z,95426.34
2023-03-10T23:31:59.309Z,95441.81
2023-03-10T23:34:29.737Z,95424.66
2023-03-10T23:37:00.180Z,95425.63
2023-03-10T23:39:30.521Z,95437.13
2023-03-10T23:42:00.854Z,95456.81
2023-03-10T23:44:33.708Z,95455.41
2023-03-10T23:47:04.140Z,95468.03
2023-03-10T23:49:34.386Z,95473.47
2023-03-10T23:52:04.704Z,95487.78
2023-03-10T23:54:35.009Z,95497.38
2023-03-10T23:57:05.400Z,95500.47
2023-03-10T23:59:38.539Z,95491.25
